Date,TemperatureHighF,TemperatureAvgF,TemperatureLowF,DewpointHighF,DewpointAvgF,DewpointLowF,HumidityHigh,HumidityAvg,HumidityLow,PressureMaxIn,PressureMinIn,WindSpeedMaxMPH,WindSpeedAvgMPH,GustSpeedMaxMPH,PrecipitationSumIn
2013-2-1,18,14,8,13,8,2,88,79,68,30.31,29.90,17,4,17,0.00
2013-2-2,23,16,8,20,12,5,88,83,77,30.25,29.97,14,3,15,0.00
2013-2-3,22,14,4,17,8,0,88,80,65,30.05,29.88,29,3,29,0.01
2013-2-4,23,20,16,19,16,11,89,85,77,30.06,29.89,6,1,7,0.00
2013-2-5,28,22,12,26,18,10,92,85,69,29.99,29.83,15,3,16,0.00
2013-2-6,33,24,13,24,16,10,90,73,54,30.32,29.98,13,2,13,0.05
2013-2-7,38,30,24,28,23,16,89,77,68,30.30,29.85,19,4,19,0.02
2013-2-8,29,26,16,27,22,13,93,85,71,30.37,29.79,24,4,28,0.00
2013-2-9,32,21,7,21,15,4,91,80,55,30.47,30.30,14,2,14,0.12
2013-2-10,40,30,21,37,26,18,91,83,62,30.31,29.69,18,3,18,0.25
2013-2-11,44,38,34,42,32,25,94,79,68,29.77,29.56,36,8,36,0.02
2013-2-12,28,27,27,21,21,21,77,76,76,29.94,29.93,4,4,11,0.00
2013-2-13,41,31,26,28,24,21,88,75,55,29.93,29.74,4,2,11,0.00
2013-2-14,39,34,29,34,30,26,91,84,74,29.86,29.68,8,5,34,0.00
2013-2-15,33,27,21,28,15,12,81,61,50,30.13,29.86,22,5,22,0.00
2013-2-16,26,20,15,20,14,8,88,79,56,30.12,29.99,15,2,17,0.01
2013-2-17,24,17,9,13,8,4,88,68,47,30.23,30.08,21,2,21,0.00
2013-2-18,46,32,16,38,22,7,77,65,52,30.24,29.60,22,5,22,0.00
2013-2-19,46,28,18,40,23,10,93,82,68,29.95,29.42,30,8,30,0.18
2013-2-20,22,19,15,16,12,7,84,72,62,30.27,29.94,24,7,24,0.00
2013-2-21,25,22,20,17,15,13,84,76,64,30.41,30.24,15,4,15,0.00
2013-2-22,33,27,21,32,24,17,95,90,81,30.27,29.91,21,4,23,0.00
2013-2-23,35,30,24,31,22,19,93,74,60,29.93,29.88,18,4,18,0.03
2013-2-24,35,29,22,26,23,18,89,78,65,30.17,29.91,18,3,18,0.00
2013-2-25,33,24,20,28,22,17,92,90,81,30.24,30.16,4,0,4,0.00